sensor_id;sensor_type;location;lat;lon;timestamp;temperature;humidity
20498;DHT22;10407;53.238;10.448;2023-11-18T00:01:56;6.30;99.90
20498;DHT22;10407;53.238;10.448;2023-11-18T00:04:24;6.30;99.90
20498;DHT22;10407;53.238;10.448;2023-11-18T00:06:51;6.20;99.90
20498;DHT22;10407;53.238;10.448;2023-11-18T00:09:20;6.20;99.90
20498;DHT22;10407;53.238;10.448;2023-11-18T00:11:49;6.20;99.90
20498;DHT22;10407;53.238;10.448;2023-11-18T00:14:17;6.10;99.90
20498;DHT22;10407;53.238;10.448;2023-11-18T00:16:45;6.10;99.90
20498;DHT22;10407;53.238;10.448;2023-11-18T00:19:12;6.10;99.90
20498;DHT22;10407;53.238;10.448;2023-11-18T00:21:40;6.20;99.90
20498;DHT22;10407;53.238;10.448;2023-11-18T00:24:09;5.90;99.90
20498;DHT22;10407;53.238;10.448;2023-11-18T00:26:36;5.90;99.90
20498;DHT22;10407;53.238;10.448;2023-11-18T00:29:04;6.10;99.90
20498;DHT22;10407;53.238;10.448;2023-11-18T00:31:31;5.90;99.90
20498;DHT22;10407;53.238;10.448;2023-11-18T00:33:59;5.70;99.90
20498;DHT22;10407;53.238;10.448;2023-11-18T00:36:26;5.90;99.90
20498;DHT22;10407;53.238;10.448;2023-11-18T00:38:55;6.00;99.90
20498;DHT22;10407;53.238;10.448;2023-11-18T00:41:22;6.10;99.90
20498;DHT22;10407;53.238;10.448;2023-11-18T00:43:50;6.10;99.90
20498;DHT22;10407;53.238;10.448;2023-11-18T00:46:17;6.10;99.90
20498;DHT22;10407;53.238;10.448;2023-11-18T00:48:45;6.10;99.90
20498;DHT22;10407;53.238;10.448;2023-11-18T00:51:12;6.10;99.90
20498;DHT22;10407;53.238;10.448;2023-11-18T00:53:40;6.10;99.90
20498;DHT22;10407;53.238;10.448;2023-11-18T00:56:08;6.20;99.90
20498;DHT22;10407;53.238;10.448;2023-11-18T00:58:37;6.20;99.90
20498;DHT22;10407;53.238;10.448;2023-11-18T01:01:06;6.20;99.90
20498;DHT22;10407;53.238;10.448;2023-11-18T01:03:34;6.20;99.90
20498;DHT22;10407;53.238;10.448;2023-11-18T01:06:01;6.20;99.90
20498;DHT22;10407;53.238;10.448;2023-11-18T01:08:29;6.20;99.90
20498;DHT22;10407;53.238;10.448;2023-11-18T01:10:56;6.20;99.90
20498;DHT22;10407;53.238;10.448;2023-11-18T01:13:24;6.20;99.90
20498;DHT22;10407;53.238;10.448;2023-11-18T01:15:53;6.30;99.90
20498;DHT22;10407;53.238;10.448;2023-11-18T01:18:20;6.30;99.90
20498;DHT22;10407;53.238;10.448;2023-11-18T01:20:48;6.10;99.90
20498;DHT22;10407;53.238;10.448;2023-11-18T01:23:15;6.10;99.90
20498;DHT22;10407;53.238;10.448;2023-11-18T01:25:43;5.90;99.90
20498;DHT22;10407;53.238;10.448;2023-11-18T01:28:10;5.60;99.90
20498;DHT22;10407;53.238;10.448;2023-11-18T01:30:38;5.40;99.90
20498;DHT22;10407;53.238;10.448;2023-11-18T01:33:05;5.70;99.90
20498;DHT22;10407;53.238;10.448;2023-11-18T01:35:34;5.90;99.90
20498;DHT22;10407;53.238;10.448;2023-11-18T01:38:02;5.90;99.90
20498;DHT22;10407;53.238;10.448;2023-11-18T01:40:32;5.90;99.90
20498;DHT22;10407;53.238;10.448;2023-11-18T01:43:00;6.00;99.90
20498;DHT22;10407;53.238;10.448;2023-11-18T01:45:28;6.00;99.90
20498;DHT22;10407;53.238;10.448;2023-11-18T01:47:57;6.10;99.90
20498;DHT22;10407;53.238;10.448;2023-11-18T01:50:24;6.20;99.90
20498;DHT22;10407;53.238;10.448;2023-11-18T01:52:52;6.20;99.90
20498;DHT22;10407;53.238;10.448;2023-11-18T01:55:19;6.20;99.90
20498;DHT22;10407;53.238;10.448;2023-11-18T01:57:48;6.20;99.90
20498;DHT22;10407;53.238;10.448;2023-11-18T02:00:17;6.20;99.90
20498;DHT22;10407;53.238;10.448;2023-11-18T02:02:45;6.10;99.90
20498;DHT22;10407;53.238;10.448;2023-11-18T02:05:13;6.20;99.90
20498;DHT22;10407;53.238;10.448;2023-11-18T02:07:40;6.20;99.90
20498;DHT22;10407;53.238;10.448;2023-11-18T02:10:08;6.10;99.90
20498;DHT22;10407;53.238;10.448;2023-11-18T02:13:10;6.10;99.90
20498;DHT22;10407;53.238;10.448;2023-11-18T02:15:36;6.10;99.90
20498;DHT22;10407;53.238;10.448;2023-11-18T02:18:07;6.10;99.90
20498;DHT22;10407;53.238;10.448;2023-11-18T02:20:38;6.20;99.90
20498;DHT22;10407;53.238;10.448;2023-11-18T02:23:06;6.20;99.90
20498;DHT22;10407;53.238;10.448;2023-11-18T02:25:40;6.10;99.90
20498;DHT22;10407;53.238;10.448;2023-11-18T02:28:05;6.10;99.90
20498;DHT22;10407;53.238;10.448;2023-11-18T02:30:33;6.20;99.90
20498;DHT22;10407;53.238;10.448;2023-11-18T02:33:03;6.10;99.90
20498;DHT22;10407;53.238;10.448;2023-11-18T02:35:38;6.10;99.90
20498;DHT22;10407;53.238;10.448;2023-11-18T02:38:05;6.10;99.90
20498;DHT22;10407;53.238;10.448;2023-11-18T02:40:36;6.00;99.90
20498;DHT22;10407;53.238;10.448;2023-11-18T02:43:05;6.10;99.90
20498;DHT22;10407;53.238;10.448;2023-11-18T02:45:35;6.00;99.90
20498;DHT22;10407;53.238;10.448;2023-11-18T02:48:04;6.10;99.90
20498;DHT22;10407;53.238;10.448;2023-11-18T02:50:33;6.00;99.90
20498;DHT22;10407;53.238;10.448;2023-11-18T02:53:02;5.90;99.90
20498;DHT22;10407;53.238;10.448;2023-11-18T02:55:29;6.10;99.90
20498;DHT22;10407;53.238;10.448;2023-11-18T02:57:57;6.00;99.90
20498;DHT22;10407;53.238;10.448;2023-11-18T03:00:24;6.10;99.90
20498;DHT22;10407;53.238;10.448;2023-11-18T03:02:52;6.00;99.90
20498;DHT22;10407;53.238;10.448;2023-11-18T03:05:20;6.10;99.90
20498;DHT22;10407;53.238;10.448;2023-11-18T03:07:48;6.10;99.90
20498;DHT22;10407;53.238;10.448;2023-11-18T03:10:21;6.10;99.90
20498;DHT22;10407;53.238;10.448;2023-11-18T03:12:53;6.10;99.90
20498;DHT22;10407;53.238;10.448;2023-11-18T03:15:40;6.00;99.90
20498;DHT22;10407;53.238;10.448;2023-11-18T03:18:08;6.10;99.90
20498;DHT22;10407;53.238;10.448;2023-11-18T03:20:35;6.20;99.90
20498;DHT22;10407;53.238;10.448;2023-11-18T03:23:03;6.20;99.90
20498;DHT22;10407;53.238;10.448;2023-11-18T03:25:38;6.10;99.90
20498;DHT22;10407;53.238;10.448;2023-11-18T03:28:05;6.10;99.90
20498;DHT22;10407;53.238;10.448;2023-11-18T03:30:33;6.00;99.90
20498;DHT22;10407;53.238;10.448;2023-11-18T03:33:02;6.00;99.90
20498;DHT22;10407;53.238;10.448;2023-11-18T03:35:30;5.90;99.90
20498;DHT22;10407;53.238;10.448;2023-11-18T03:37:58;6.00;99.90
20498;DHT22;10407;53.238;10.448;2023-11-18T03:40:25;5.80;99.90
20498;DHT22;10407;53.238;10.448;2023-11-18T03:42:54;5.90;99.90
20498;DHT22;10407;53.238;10.448;2023-11-18T03:45:23;5.90;99.90
20498;DHT22;10407;53.238;10.448;2023-11-18T03:47:50;5.90;99.90
20498;DHT22;10407;53.238;10.448;2023-11-18T03:50:18;5.90;99.90
20498;DHT22;10407;53.238;10.448;2023-11-18T03:52:46;6.00;99.90
20498;DHT22;10407;53.238;10.448;2023-11-18T03:55:13;6.10;99.90
20498;DHT22;10407;53.238;10.448;2023-11-18T03:57:41;6.10;99.90
20498;DHT22;10407;53.238;10.448;2023-11-18T04:00:09;6.10;99.90
20498;DHT22;10407;53.238;10.448;2023-11-18T04:02:37;5.80;99.90
20498;DHT22;10407;53.238;10.448;2023-11-18T04:05:07;5.80;99.90
20498;DHT22;10407;53.238;10.448;2023-11-18T04:07:34;6.00;99.90
20498;DHT22;10407;53.238;10.448;2023-11-18T04:10:02;6.00;99.90
20498;DHT22;10407;53.238;10.448;2023-11-18T04:12:31;6.00;99.90
20498;DHT22;10407;53.238;10.448;2023-11-18T04:14:59;5.90;99.90
20498;DHT22;10407;53.238;10.448;2023-11-18T04:17:26;5.80;99.90
20498;DHT22;10407;53.238;10.448;2023-11-18T04:19:54;5.80;99.90
20498;DHT22;10407;53.238;10.448;2023-11-18T04:22:23;5.90;99.90
20498;DHT22;10407;53.238;10.448;2023-11-18T04:24:50;5.90;99.90
20498;DHT22;10407;53.238;10.448;2023-11-18T04:27:18;5.90;99.90
20498;DHT22;10407;53.238;10.448;2023-11-18T04:29:45;5.90;99.90
20498;DHT22;10407;53.238;10.448;2023-11-18T04:32:13;6.00;99.90
20498;DHT22;10407;53.238;10.448;2023-11-18T04:34:40;5.90;99.90
20498;DHT22;10407;53.238;10.448;2023-11-18T04:37:09;5.90;99.90
20498;DHT22;10407;53.238;10.448;2023-11-18T04:39:37;5.90;99.90
20498;DHT22;10407;53.238;10.448;2023-11-18T04:42:05;5.90;99.90
20498;DHT22;10407;53.238;10.448;2023-11-18T04:44:33;5.70;99.90
20498;DHT22;10407;53.238;10.448;2023-11-18T04:47:00;5.60;99.90
20498;DHT22;10407;53.238;10.448;2023-11-18T04:49:29;5.70;99.90
20498;DHT22;10407;53.238;10.448;2023-11-18T04:51:56;5.70;99.90
20498;DHT22;10407;53.238;10.448;2023-11-18T04:54:25;5.70;99.90
20498;DHT22;10407;53.238;10.448;2023-11-18T04:56:53;5.70;99.90
20498;DHT22;10407;53.238;10.448;2023-11-18T04:59:20;5.40;99.90
20498;DHT22;10407;53.238;10.448;2023-11-18T05:01:48;5.50;99.90
20498;DHT22;10407;53.238;10.448;2023-11-18T05:04:15;5.60;99.90
20498;DHT22;10407;53.238;10.448;2023-11-18T05:06:43;5.60;99.90
20498;DHT22;10407;53.238;10.448;2023-11-18T05:09:11;5.50;99.90
20498;DHT22;10407;53.238;10.448;2023-11-18T05:11:38;5.50;99.90
20498;DHT22;10407;53.238;10.448;2023-11-18T05:14:06;5.40;99.90
20498;DHT22;10407;53.238;10.448;2023-11-18T05:16:33;5.30;99.90
20498;DHT22;10407;53.238;10.448;2023-11-18T05:19:01;5.30;99.90
20498;DHT22;10407;53.238;10.448;2023-11-18T05:21:29;5.20;99.90
20498;DHT22;10407;53.238;10.448;2023-11-18T05:23:57;5.10;99.90
20498;DHT22;10407;53.238;10.448;2023-11-18T05:26:24;5.10;99.90
20498;DHT22;10407;53.238;10.448;2023-11-18T05:28:53;4.80;99.90
20498;DHT22;10407;53.238;10.448;2023-11-18T05:31:21;4.50;99.90
20498;DHT22;10407;53.238;10.448;2023-11-18T05:33:48;4.50;99.90
20498;DHT22;10407;53.238;10.448;2023-11-18T05:36:18;4.40;99.90
20498;DHT22;10407;53.238;10.448;2023-11-18T05:38:47;4.50;99.90
20498;DHT22;10407;53.238;10.448;2023-11-18T05:41:14;4.50;99.90
20498;DHT22;10407;53.238;10.448;2023-11-18T05:43:44;4.30;99.90
20498;DHT22;10407;53.238;10.448;2023-11-18T05:46:13;4.30;99.90
20498;DHT22;10407;53.238;10.448;2023-11-18T05:48:54;4.30;99.90
20498;DHT22;10407;53.238;10.448;2023-11-18T05:51:23;4.30;99.90
20498;DHT22;10407;53.238;10.448;2023-11-18T05:53:52;4.40;99.90
20498;DHT22;10407;53.238;10.448;2023-11-18T05:56:20;4.40;99.90
20498;DHT22;10407;53.238;10.448;2023-11-18T05:58:52;4.40;99.90
20498;DHT22;10407;53.238;10.448;2023-11-18T06:01:20;4.40;99.90
20498;DHT22;10407;53.238;10.448;2023-11-18T06:03:47;4.50;99.90
20498;DHT22;10407;53.238;10.448;2023-11-18T06:06:16;4.30;99.90
20498;DHT22;10407;53.238;10.448;2023-11-18T06:08:43;4.30;99.90
20498;DHT22;10407;53.238;10.448;2023-11-18T06:11:12;4.40;99.90
20498;DHT22;10407;53.238;10.448;2023-11-18T06:13:44;4.60;99.90
20498;DHT22;10407;53.238;10.448;2023-11-18T06:18:44;4.40;99.90
20498;DHT22;10407;53.238;10.448;2023-11-18T06:21:13;4.40;99.90
20498;DHT22;10407;53.238;10.448;2023-11-18T06:23:42;4.30;99.90
20498;DHT22;10407;53.238;10.448;2023-11-18T06:26:10;4.30;99.90
20498;DHT22;10407;53.238;10.448;2023-11-18T06:28:39;4.40;99.90
20498;DHT22;10407;53.238;10.448;2023-11-18T06:31:07;4.40;99.90
20498;DHT22;10407;53.238;10.448;2023-11-18T06:33:42;4.40;99.90
20498;DHT22;10407;53.238;10.448;2023-11-18T06:36:18;4.30;99.90
20498;DHT22;10407;53.238;10.448;2023-11-18T06:38:49;4.30;99.90
20498;DHT22;10407;53.238;10.448;2023-11-18T06:41:19;4.30;99.90
20498;DHT22;10407;53.238;10.448;2023-11-18T06:43:48;4.20;99.90
20498;DHT22;10407;53.238;10.448;2023-11-18T06:46:30;4.10;99.90
20498;DHT22;10407;53.238;10.448;2023-11-18T06:49:02;4.00;99.90
20498;DHT22;10407;53.238;10.448;2023-11-18T06:51:37;4.00;99.90
20498;DHT22;10407;53.238;10.448;2023-11-18T06:54:05;3.80;99.90
20498;DHT22;10407;53.238;10.448;2023-11-18T06:56:38;3.90;99.90
20498;DHT22;10407;53.238;10.448;2023-11-18T06:59:06;4.00;99.90
20498;DHT22;10407;53.238;10.448;2023-11-18T07:01:34;4.00;99.90
20498;DHT22;10407;53.238;10.448;2023-11-18T07:04:02;3.90;99.90
20498;DHT22;10407;53.238;10.448;2023-11-18T07:06:29;4.00;99.90
20498;DHT22;10407;53.238;10.448;2023-11-18T07:08:57;4.00;99.90
20498;DHT22;10407;53.238;10.448;2023-11-18T07:11:27;4.00;99.90
20498;DHT22;10407;53.238;10.448;2023-11-18T07:13:54;4.00;99.90
20498;DHT22;10407;53.238;10.448;2023-11-18T07:16:24;4.00;99.90
20498;DHT22;10407;53.238;10.448;2023-11-18T07:18:52;4.10;99.90
20498;DHT22;10407;53.238;10.448;2023-11-18T07:21:20;4.30;99.90
20498;DHT22;10407;53.238;10.448;2023-11-18T07:23:47;4.50;99.90
20498;DHT22;10407;53.238;10.448;2023-11-18T07:26:15;4.60;99.90
20498;DHT22;10407;53.238;10.448;2023-11-18T07:28:42;4.70;99.90
20498;DHT22;10407;53.238;10.448;2023-11-18T07:31:11;4.80;99.90
20498;DHT22;10407;53.238;10.448;2023-11-18T07:33:39;4.90;99.90
20498;DHT22;10407;53.238;10.448;2023-11-18T07:36:07;5.10;99.90
20498;DHT22;10407;53.238;10.448;2023-11-18T07:38:36;5.00;99.90
20498;DHT22;10407;53.238;10.448;2023-11-18T07:41:04;5.00;99.90
20498;DHT22;10407;53.238;10.448;2023-11-18T07:43:34;5.40;99.90
20498;DHT22;10407;53.238;10.448;2023-11-18T07:46:03;5.50;99.90
20498;DHT22;10407;53.238;10.448;2023-11-18T07:48:32;5.60;99.90
20498;DHT22;10407;53.238;10.448;2023-11-18T07:51:01;6.00;99.90
20498;DHT22;10407;53.238;10.448;2023-11-18T07:53:30;5.90;99.80
20498;DHT22;10407;53.238;10.448;2023-11-18T07:55:58;5.70;99.90
20498;DHT22;10407;53.238;10.448;2023-11-18T07:58:27;6.00;99.90
20498;DHT22;10407;53.238;10.448;2023-11-18T08:00:55;6.20;99.90
20498;DHT22;10407;53.238;10.448;2023-11-18T08:03:22;6.20;99.90
20498;DHT22;10407;53.238;10.448;2023-11-18T08:05:50;6.50;99.90
20498;DHT22;10407;53.238;10.448;2023-11-18T08:08:17;6.40;99.90
20498;DHT22;10407;53.238;10.448;2023-11-18T08:10:45;6.40;99.90
20498;DHT22;10407;53.238;10.448;2023-11-18T08:13:14;6.20;99.90
20498;DHT22;10407;53.238;10.448;2023-11-18T08:15:43;6.30;99.90
20498;DHT22;10407;53.238;10.448;2023-11-18T08:18:13;6.30;99.90
20498;DHT22;10407;53.238;10.448;2023-11-18T08:20:43;6.10;99.90
20498;DHT22;10407;53.238;10.448;2023-11-18T08:23:11;6.10;99.90
20498;DHT22;10407;53.238;10.448;2023-11-18T08:25:38;6.10;99.90
20498;DHT22;10407;53.238;10.448;2023-11-18T08:28:08;6.20;99.90
20498;DHT22;10407;53.238;10.448;2023-11-18T08:30:38;6.30;99.90
20498;DHT22;10407;53.238;10.448;2023-11-18T08:33:06;6.20;99.90
20498;DHT22;10407;53.238;10.448;2023-11-18T08:35:36;6.20;99.90
20498;DHT22;10407;53.238;10.448;2023-11-18T08:38:04;6.40;99.90
20498;DHT22;10407;53.238;10.448;2023-11-18T08:40:34;6.50;99.90
20498;DHT22;10407;53.238;10.448;2023-11-18T08:43:02;6.50;99.90
20498;DHT22;10407;53.238;10.448;2023-11-18T08:45:31;6.20;99.90
20498;DHT22;10407;53.238;10.448;2023-11-18T08:48:01;5.80;99.90
20498;DHT22;10407;53.238;10.448;2023-11-18T08:50:30;5.90;99.90
20498;DHT22;10407;53.238;10.448;2023-11-18T08:52:58;5.90;99.90
20498;DHT22;10407;53.238;10.448;2023-11-18T08:55:27;6.20;99.90
20498;DHT22;10407;53.238;10.448;2023-11-18T08:58:13;6.00;99.90
20498;DHT22;10407;53.238;10.448;2023-11-18T09:00:53;6.30;99.90
20498;DHT22;10407;53.238;10.448;2023-11-18T09:03:23;6.40;99.90
20498;DHT22;10407;53.238;10.448;2023-11-18T09:05:59;6.40;99.90
20498;DHT22;10407;53.238;10.448;2023-11-18T09:08:34;6.20;99.90
20498;DHT22;10407;53.238;10.448;2023-11-18T09:11:03;6.10;99.90
20498;DHT22;10407;53.238;10.448;2023-11-18T09:13:31;6.30;99.90
20498;DHT22;10407;53.238;10.448;2023-11-18T09:16:03;5.90;99.90
20498;DHT22;10407;53.238;10.448;2023-11-18T09:18:33;6.50;99.90
20498;DHT22;10407;53.238;10.448;2023-11-18T09:21:02;6.90;99.90
20498;DHT22;10407;53.238;10.448;2023-11-18T09:23:32;7.20;99.90
20498;DHT22;10407;53.238;10.448;2023-11-18T09:26:01;7.30;99.90
20498;DHT22;10407;53.238;10.448;2023-11-18T09:28:30;7.40;99.90
20498;DHT22;10407;53.238;10.448;2023-11-18T09:30:58;7.50;99.50
20498;DHT22;10407;53.238;10.448;2023-11-18T09:33:27;7.50;99.50
20498;DHT22;10407;53.238;10.448;2023-11-18T09:35:58;7.50;99.50
20498;DHT22;10407;53.238;10.448;2023-11-18T09:38:30;7.50;99.70
20498;DHT22;10407;53.238;10.448;2023-11-18T09:41:00;7.60;99.60
20498;DHT22;10407;53.238;10.448;2023-11-18T09:43:33;7.80;99.60
20498;DHT22;10407;53.238;10.448;2023-11-18T09:46:09;8.00;99.30
20498;DHT22;10407;53.238;10.448;2023-11-18T09:48:48;8.10;99.30
20498;DHT22;10407;53.238;10.448;2023-11-18T09:51:22;8.10;99.10
20498;DHT22;10407;53.238;10.448;2023-11-18T09:53:53;8.10;99.10
20498;DHT22;10407;53.238;10.448;2023-11-18T09:56:41;8.10;99.30
20498;DHT22;10407;53.238;10.448;2023-11-18T09:59:11;8.30;99.00
20498;DHT22;10407;53.238;10.448;2023-11-18T10:01:49;8.20;98.70
20498;DHT22;10407;53.238;10.448;2023-11-18T10:04:21;8.20;98.00
20498;DHT22;10407;53.238;10.448;2023-11-18T10:06:52;8.20;98.20
20498;DHT22;10407;53.238;10.448;2023-11-18T10:09:20;8.30;98.10
20498;DHT22;10407;53.238;10.448;2023-11-18T10:11:49;8.10;97.90
20498;DHT22;10407;53.238;10.448;2023-11-18T10:14:18;8.40;98.10
20498;DHT22;10407;53.238;10.448;2023-11-18T10:16:46;8.70;98.00
20498;DHT22;10407;53.238;10.448;2023-11-18T10:19:14;8.80;97.40
20498;DHT22;10407;53.238;10.448;2023-11-18T10:21:44;8.80;97.30
20498;DHT22;10407;53.238;10.448;2023-11-18T10:24:13;8.70;97.10
20498;DHT22;10407;53.238;10.448;2023-11-18T10:26:57;8.60;96.80
20498;DHT22;10407;53.238;10.448;2023-11-18T10:29:26;8.60;97.10
20498;DHT22;10407;53.238;10.448;2023-11-18T10:32:05;8.50;97.00
20498;DHT22;10407;53.238;10.448;2023-11-18T10:34:37;8.40;97.10
20498;DHT22;10407;53.238;10.448;2023-11-18T10:37:06;8.50;97.20
20498;DHT22;10407;53.238;10.448;2023-11-18T10:39:35;8.50;96.50
20498;DHT22;10407;53.238;10.448;2023-11-18T10:42:04;8.50;96.60
20498;DHT22;10407;53.238;10.448;2023-11-18T10:44:32;8.30;97.00
20498;DHT22;10407;53.238;10.448;2023-11-18T10:46:59;8.20;96.30
20498;DHT22;10407;53.238;10.448;2023-11-18T10:49:28;8.30;96.30
20498;DHT22;10407;53.238;10.448;2023-11-18T10:51:58;8.10;96.90
20498;DHT22;10407;53.238;10.448;2023-11-18T10:54:25;8.10;96.50
20498;DHT22;10407;53.238;10.448;2023-11-18T10:56:53;8.20;96.80
20498;DHT22;10407;53.238;10.448;2023-11-18T10:59:23;8.30;96.50
20498;DHT22;10407;53.238;10.448;2023-11-18T11:01:52;8.10;96.30
20498;DHT22;10407;53.238;10.448;2023-11-18T11:04:19;8.10;96.20
20498;DHT22;10407;53.238;10.448;2023-11-18T11:06:51;8.30;96.30
20498;DHT22;10407;53.238;10.448;2023-11-18T11:09:24;8.50;96.20
20498;DHT22;10407;53.238;10.448;2023-11-18T11:11:58;8.30;95.90
20498;DHT22;10407;53.238;10.448;2023-11-18T11:14:37;7.80;96.40
20498;DHT22;10407;53.238;10.448;2023-11-18T11:17:07;7.80;96.80
20498;DHT22;10407;53.238;10.448;2023-11-18T11:22:38;8.10;96.20
20498;DHT22;10407;53.238;10.448;2023-11-18T11:25:19;8.40;95.90
20498;DHT22;10407;53.238;10.448;2023-11-18T11:30:23;8.30;95.70
20498;DHT22;10407;53.238;10.448;2023-11-18T11:33:04;8.20;95.50
20498;DHT22;10407;53.238;10.448;2023-11-18T11:35:30;8.10;95.80
20498;DHT22;10407;53.238;10.448;2023-11-18T11:37:59;8.00;95.70
20498;DHT22;10407;53.238;10.448;2023-11-18T11:40:31;8.00;95.90
20498;DHT22;10407;53.238;10.448;2023-11-18T11:42:59;8.00;96.50
20498;DHT22;10407;53.238;10.448;2023-11-18T11:45:30;7.80;96.60
20498;DHT22;10407;53.238;10.448;2023-11-18T11:47:59;7.80;96.90
20498;DHT22;10407;53.238;10.448;2023-11-18T11:50:54;7.80;96.80
20498;DHT22;10407;53.238;10.448;2023-11-18T11:53:22;7.80;97.20
20498;DHT22;10407;53.238;10.448;2023-11-18T11:55:54;7.80;97.10
20498;DHT22;10407;53.238;10.448;2023-11-18T11:58:30;7.80;97.30
20498;DHT22;10407;53.238;10.448;2023-11-18T12:01:01;7.90;97.40
20498;DHT22;10407;53.238;10.448;2023-11-18T12:03:38;7.90;97.40
20498;DHT22;10407;53.238;10.448;2023-11-18T12:06:02;7.90;97.20
20498;DHT22;10407;53.238;10.448;2023-11-18T12:08:35;7.80;97.20
20498;DHT22;10407;53.238;10.448;2023-11-18T12:11:06;7.70;97.10
20498;DHT22;10407;53.238;10.448;2023-11-18T12:13:38;7.70;97.20
20498;DHT22;10407;53.238;10.448;2023-11-18T12:16:06;7.40;97.50
20498;DHT22;10407;53.238;10.448;2023-11-18T12:18:36;7.20;97.40
20498;DHT22;10407;53.238;10.448;2023-11-18T12:21:04;7.20;97.90
20498;DHT22;10407;53.238;10.448;2023-11-18T12:23:31;7.30;97.60
20498;DHT22;10407;53.238;10.448;2023-11-18T12:26:00;7.30;98.40
20498;DHT22;10407;53.238;10.448;2023-11-18T12:28:33;7.30;97.90
20498;DHT22;10407;53.238;10.448;2023-11-18T12:31:02;7.20;97.80
20498;DHT22;10407;53.238;10.448;2023-11-18T12:42:05;7.30;98.30
20498;DHT22;10407;53.238;10.448;2023-11-18T12:47:38;7.20;98.70
20498;DHT22;10407;53.238;10.448;2023-11-18T12:50:09;7.30;98.40
20498;DHT22;10407;53.238;10.448;2023-11-18T12:52:40;7.40;98.60
20498;DHT22;10407;53.238;10.448;2023-11-18T12:55:11;7.30;98.60
20498;DHT22;10407;53.238;10.448;2023-11-18T12:57:45;7.40;98.40
20498;DHT22;10407;53.238;10.448;2023-11-18T13:00:12;7.30;98.10
20498;DHT22;10407;53.238;10.448;2023-11-18T13:02:41;7.20;98.20
20498;DHT22;10407;53.238;10.448;2023-11-18T13:05:11;7.20;98.20
20498;DHT22;10407;53.238;10.448;2023-11-18T13:07:40;7.10;98.30
20498;DHT22;10407;53.238;10.448;2023-11-18T13:10:09;7.10;98.40
20498;DHT22;10407;53.238;10.448;2023-11-18T13:12:39;7.00;98.60
20498;DHT22;10407;53.238;10.448;2023-11-18T13:15:07;7.20;98.50
20498;DHT22;10407;53.238;10.448;2023-11-18T13:17:35;7.20;98.50
20498;DHT22;10407;53.238;10.448;2023-11-18T13:20:15;7.30;98.50
20498;DHT22;10407;53.238;10.448;2023-11-18T13:22:44;7.30;98.50
20498;DHT22;10407;53.238;10.448;2023-11-18T13:25:11;7.30;98.40
20498;DHT22;10407;53.238;10.448;2023-11-18T13:27:40;7.30;98.60
20498;DHT22;10407;53.238;10.448;2023-11-18T13:30:09;7.30;98.40
20498;DHT22;10407;53.238;10.448;2023-11-18T13:32:40;7.30;98.50
20498;DHT22;10407;53.238;10.448;2023-11-18T13:35:09;7.20;98.70
20498;DHT22;10407;53.238;10.448;2023-11-18T13:37:39;7.20;99.00
20498;DHT22;10407;53.238;10.448;2023-11-18T13:40:11;7.20;98.90
20498;DHT22;10407;53.238;10.448;2023-11-18T13:42:39;7.20;98.90
20498;DHT22;10407;53.238;10.448;2023-11-18T13:45:14;7.10;99.00
20498;DHT22;10407;53.238;10.448;2023-11-18T13:47:55;7.10;99.10
20498;DHT22;10407;53.238;10.448;2023-11-18T13:50:23;7.20;99.10
20498;DHT22;10407;53.238;10.448;2023-11-18T13:52:51;7.20;99.30
20498;DHT22;10407;53.238;10.448;2023-11-18T13:55:20;7.10;99.20
20498;DHT22;10407;53.238;10.448;2023-11-18T13:57:55;7.10;99.40
20498;DHT22;10407;53.238;10.448;2023-11-18T14:00:25;7.00;99.30
20498;DHT22;10407;53.238;10.448;2023-11-18T14:02:56;6.90;99.50
20498;DHT22;10407;53.238;10.448;2023-11-18T14:05:24;7.00;99.60
20498;DHT22;10407;53.238;10.448;2023-11-18T14:07:53;7.00;99.40
20498;DHT22;10407;53.238;10.448;2023-11-18T14:10:25;6.90;99.40
20498;DHT22;10407;53.238;10.448;2023-11-18T14:13:05;6.80;99.40
20498;DHT22;10407;53.238;10.448;2023-11-18T14:15:34;6.80;99.40
20498;DHT22;10407;53.238;10.448;2023-11-18T14:18:05;6.70;99.40
20498;DHT22;10407;53.238;10.448;2023-11-18T14:20:37;6.60;99.80
20498;DHT22;10407;53.238;10.448;2023-11-18T14:23:04;6.60;99.60
20498;DHT22;10407;53.238;10.448;2023-11-18T14:25:32;6.60;99.80
20498;DHT22;10407;53.238;10.448;2023-11-18T14:28:01;6.60;99.80
20498;DHT22;10407;53.238;10.448;2023-11-18T14:30:29;6.70;99.80
20498;DHT22;10407;53.238;10.448;2023-11-18T14:32:57;6.50;99.90
20498;DHT22;10407;53.238;10.448;2023-11-18T14:35:24;6.60;99.90
20498;DHT22;10407;53.238;10.448;2023-11-18T14:37:52;6.60;99.90
20498;DHT22;10407;53.238;10.448;2023-11-18T14:40:19;6.60;99.90
20498;DHT22;10407;53.238;10.448;2023-11-18T14:42:49;6.60;99.90
20498;DHT22;10407;53.238;10.448;2023-11-18T14:45:17;6.60;99.70
20498;DHT22;10407;53.238;10.448;2023-11-18T14:47:45;6.50;99.90
20498;DHT22;10407;53.238;10.448;2023-11-18T14:50:14;6.50;99.90
20498;DHT22;10407;53.238;10.448;2023-11-18T14:52:50;6.50;99.90
20498;DHT22;10407;53.238;10.448;2023-11-18T14:55:16;6.50;99.90
20498;DHT22;10407;53.238;10.448;2023-11-18T14:57:44;6.50;99.90
20498;DHT22;10407;53.238;10.448;2023-11-18T15:00:13;6.50;99.90
20498;DHT22;10407;53.238;10.448;2023-11-18T15:02:49;6.30;99.90
20498;DHT22;10407;53.238;10.448;2023-11-18T15:05:18;6.40;99.90
20498;DHT22;10407;53.238;10.448;2023-11-18T15:07:47;6.50;99.90
20498;DHT22;10407;53.238;10.448;2023-11-18T15:10:19;6.40;99.90
20498;DHT22;10407;53.238;10.448;2023-11-18T15:12:49;6.40;99.90
20498;DHT22;10407;53.238;10.448;2023-11-18T15:15:21;6.40;99.90
20498;DHT22;10407;53.238;10.448;2023-11-18T15:17:49;6.40;99.90
20498;DHT22;10407;53.238;10.448;2023-11-18T15:20:17;6.40;99.90
20498;DHT22;10407;53.238;10.448;2023-11-18T15:22:46;6.20;99.90
20498;DHT22;10407;53.238;10.448;2023-11-18T15:25:13;6.30;99.90
20498;DHT22;10407;53.238;10.448;2023-11-18T15:27:44;6.30;99.90
20498;DHT22;10407;53.238;10.448;2023-11-18T15:30:13;6.20;99.90
20498;DHT22;10407;53.238;10.448;2023-11-18T15:32:44;6.20;99.90
20498;DHT22;10407;53.238;10.448;2023-11-18T15:35:12;6.20;99.90
20498;DHT22;10407;53.238;10.448;2023-11-18T15:37:43;6.30;99.90
20498;DHT22;10407;53.238;10.448;2023-11-18T15:40:13;6.30;99.90
20498;DHT22;10407;53.238;10.448;2023-11-18T15:42:43;6.40;99.90
20498;DHT22;10407;53.238;10.448;2023-11-18T15:45:13;6.40;99.90
20498;DHT22;10407;53.238;10.448;2023-11-18T15:47:41;6.30;99.90
20498;DHT22;10407;53.238;10.448;2023-11-18T15:50:13;6.40;99.90
20498;DHT22;10407;53.238;10.448;2023-11-18T15:52:51;6.40;99.90
20498;DHT22;10407;53.238;10.448;2023-11-18T15:55:21;6.40;99.90
20498;DHT22;10407;53.238;10.448;2023-11-18T15:57:54;6.30;99.90
20498;DHT22;10407;53.238;10.448;2023-11-18T16:00:26;6.40;99.90
20498;DHT22;10407;53.238;10.448;2023-11-18T16:02:57;6.30;99.90
20498;DHT22;10407;53.238;10.448;2023-11-18T16:05:27;6.20;99.90